createdAt,value
2022-07-28T00:08:48.574Z,0
2022-07-28T00:18:25.531Z,0
2022-07-28T00:28:02.205Z,0
2022-07-28T00:47:15.725Z,0
2022-07-28T00:56:52.574Z,0
2022-07-28T01:06:29.535Z,0
2022-07-28T01:16:06.732Z,0
2022-07-28T01:25:48.117Z,0
2022-07-28T01:35:20.079Z,0
2022-07-28T01:44:56.846Z,0
2022-07-28T01:54:33.588Z,0
2022-07-28T02:04:10.554Z,0
2022-07-28T02:13:47.431Z,0
2022-07-28T02:23:24.128Z,0
2022-07-28T02:33:01.325Z,0
2022-07-28T02:42:38.551Z,0
2022-07-28T02:52:15.256Z,0
2022-07-28T03:01:52.139Z,0
2022-07-28T03:11:28.981Z,0
2022-07-28T03:21:05.992Z,0
2022-07-28T03:40:19.863Z,11.25
2022-07-28T03:49:57.316Z,28.13
2022-07-28T04:09:11.996Z,50.63
2022-07-28T04:38:05.003Z,101.25
2022-07-28T04:47:42.650Z,106.88
2022-07-28T04:57:20.224Z,129.38
2022-07-28T05:06:57.959Z,135
2022-07-28T05:16:35.576Z,146.25
2022-07-28T05:26:13.490Z,163.13
2022-07-28T05:35:51.781Z,196.88
2022-07-28T06:04:44.608Z,219.38
2022-07-28T06:23:59.642Z,151.88
2022-07-28T06:43:15.109Z,174.38
2022-07-28T06:52:52.961Z,180
2022-07-28T07:02:30.692Z,185.63
2022-07-28T07:12:08.474Z,191.25
2022-07-28T07:21:46.509Z,196.88
2022-07-28T07:31:24.073Z,196.88
2022-07-28T07:41:01.357Z,213.75
2022-07-28T08:00:28.353Z,213.75
2022-07-28T08:09:54.311Z,225
2022-07-28T08:38:48.388Z,247.5
2022-07-28T08:48:27.033Z,236.25
2022-07-28T09:17:22.965Z,303.75
2022-07-28T09:36:47.924Z,1777.5
2022-07-28T09:56:18.876Z,2317.5
2022-07-28T10:05:59.732Z,3318.75
2022-07-28T10:15:45.558Z,2908.13
2022-07-28T10:35:02.537Z,3121.88
2022-07-28T10:44:44.369Z,3043.13
2022-07-28T10:54:25.922Z,3262.5
2022-07-28T11:04:00.794Z,2390.63
2022-07-28T11:23:17.060Z,3217.5
2022-07-28T11:32:59.283Z,3296.25
2022-07-28T12:01:58.637Z,4387.5
2022-07-28T12:21:15.120Z,3510
2022-07-28T12:30:54.245Z,3380.63
2022-07-28T12:40:32.230Z,3403.13
2022-07-28T12:50:07.234Z,3386.25
2022-07-28T12:59:46.229Z,3605.63
2022-07-28T13:09:24.177Z,3076.88
2022-07-28T13:19:04.014Z,3211.88
2022-07-28T13:57:35.932Z,2520
2022-07-28T14:36:13.748Z,2626.88
2022-07-28T14:45:50.519Z,2323.13
2022-07-28T14:55:26.761Z,1867.5
2022-07-28T15:05:04.867Z,2205
2022-07-28T15:14:38.970Z,1805.63
2022-07-28T15:24:09.173Z,691.88
2022-07-28T15:43:23.702Z,860.63
2022-07-28T15:52:58.185Z,753.75
2022-07-28T16:02:35.100Z,663.75
2022-07-28T16:12:12.964Z,534.38
2022-07-28T16:21:47.222Z,483.75
2022-07-28T16:50:31.759Z,247.5
2022-07-28T17:00:08.499Z,253.13
2022-07-28T17:09:45.576Z,191.25
2022-07-28T17:28:59.442Z,196.88
2022-07-28T18:07:26.482Z,84.38
2022-07-28T18:17:02.533Z,67.5
2022-07-28T18:26:38.997Z,50.63
2022-07-28T18:36:15.878Z,39.38
2022-07-28T18:45:52.708Z,28.13
2022-07-28T19:05:06.177Z,5.63
2022-07-28T19:24:20.249Z,0
2022-07-28T19:33:56.364Z,0
2022-07-28T19:43:32.942Z,0
2022-07-28T19:53:09.687Z,0
2022-07-28T20:02:46.156Z,0
2022-07-28T20:12:22.415Z,0
2022-07-28T20:21:59.466Z,0
2022-07-28T20:31:36.836Z,0
2022-07-28T20:41:13.820Z,0
2022-07-28T20:50:50.987Z,0
2022-07-28T21:00:27.805Z,0
2022-07-28T21:19:41.450Z,0
2022-07-28T21:38:55.640Z,0
2022-07-28T21:48:32.592Z,0
2022-07-28T21:58:10.132Z,0
2022-07-28T22:07:47.647Z,0
2022-07-28T22:17:24.972Z,0
2022-07-28T22:27:02.251Z,0
2022-07-28T22:36:39.668Z,0
2022-07-28T22:55:54.462Z,0
2022-07-28T23:15:08.899Z,0
2022-07-28T23:24:46.047Z,0
2022-07-28T23:53:38.505Z,0
